Time;durP1;ratioP1;P1;durP2;ratioP2;P2;SDS_P1;SDS_P2;PMS_P1;PMS_P2;Temp;Humidity;BMP_temperature;BMP_pressure;BME280_temperature;BME280_humidity;BME280_pressure;Samples;Min_cycle;Max_cycle;Signal;HPM_P1;HPM_P2
2022/02/14 00:01:35;;;;;;;4.30;1.10;;;;;;;6.82;100.00;98865.56;5103113;27;20035;-73
2022/02/14 00:04:01;;;;;;;2.20;1.00;;;;;;;6.83;100.00;98874.69;5084146;28;20031;-73
2022/02/14 00:06:26;;;;;;;2.80;0.90;;;;;;;6.78;100.00;98869.28;5108442;27;20682;-72
2022/02/14 00:08:52;;;;;;;1.77;1.00;;;;;;;6.76;100.00;98877.84;5087001;27;20028;-73
2022/02/14 00:11:17;;;;;;;3.92;1.05;;;;;;;6.74;100.00;98885.63;5094595;27;20034;-72
2022/02/14 00:13:43;;;;;;;2.92;1.00;;;;;;;6.72;100.00;98888.69;5061790;28;20050;-73
2022/02/14 00:16:08;;;;;;;2.45;0.98;;;;;;;6.66;100.00;98900.16;5103595;28;20040;-72
2022/02/14 00:18:34;;;;;;;3.10;1.00;;;;;;;6.65;100.00;98909.53;5095027;28;20085;-72
2022/02/14 00:20:59;;;;;;;1.85;0.80;;;;;;;6.63;100.00;98917.28;5091769;28;20043;-72
2022/02/14 00:23:25;;;;;;;3.10;1.10;;;;;;;6.62;100.00;98923.94;5063104;28;20080;-72
2022/02/14 00:25:50;;;;;;;3.25;1.23;;;;;;;6.60;100.00;98923.44;5082440;28;20043;-72
2022/02/14 00:28:16;;;;;;;3.20;1.20;;;;;;;6.59;100.00;98935.59;5107775;27;20030;-73
2022/02/14 00:30:42;;;;;;;2.47;1.15;;;;;;;6.58;100.00;98953.28;5076743;27;20122;-73
2022/02/14 00:33:07;;;;;;;3.58;1.23;;;;;;;6.55;100.00;98951.94;5073652;28;20067;-72
2022/02/14 00:35:33;;;;;;;2.88;1.40;;;;;;;6.53;100.00;98956.13;5071699;28;20032;-73
2022/02/14 00:37:59;;;;;;;3.55;1.33;;;;;;;6.51;100.00;98961.13;5093287;28;20082;-72
2022/02/14 00:40:24;;;;;;;3.85;1.25;;;;;;;6.52;100.00;98957.25;5067409;28;20052;-72
2022/02/14 00:42:50;;;;;;;4.80;1.23;;;;;;;6.48;100.00;98962.56;5087732;27;20032;-72
2022/02/14 00:45:16;;;;;;;4.03;1.50;;;;;;;6.46;100.00;98970.31;5084846;28;20032;-72
2022/02/14 00:47:41;;;;;;;4.10;1.33;;;;;;;6.42;100.00;98975.63;5097384;28;20040;-72
2022/02/14 00:50:08;;;;;;;3.22;1.42;;;;;;;6.38;100.00;98982.03;5065212;28;20032;-72
2022/02/14 00:52:34;;;;;;;3.67;1.35;;;;;;;6.35;100.00;98977.13;5080416;28;20043;-72
2022/02/14 00:54:59;;;;;;;4.70;1.30;;;;;;;6.31;100.00;98984.38;5076197;28;20032;-72
2022/02/14 00:57:25;;;;;;;4.63;1.30;;;;;;;6.24;100.00;98982.00;5077623;28;20031;-73
2022/02/14 00:59:51;;;;;;;5.78;1.20;;;;;;;6.22;100.00;98987.03;5076148;28;20049;-73
2022/02/14 01:02:16;;;;;;;3.83;1.20;;;;;;;6.16;100.00;98989.06;5075157;28;20035;-73
2022/02/14 01:04:42;;;;;;;5.55;1.70;;;;;;;6.09;100.00;98991.38;5078651;27;20036;-73
2022/02/14 01:07:07;;;;;;;5.25;1.30;;;;;;;6.03;100.00;99001.66;5078789;28;20032;-73
2022/02/14 01:09:33;;;;;;;3.92;1.30;;;;;;;5.97;100.00;99002.88;5075222;28;20043;-72
2022/02/14 01:11:58;;;;;;;3.65;0.98;;;;;;;5.93;100.00;98996.31;5075532;28;20031;-73
2022/02/14 01:14:24;;;;;;;6.22;1.52;;;;;;;5.88;100.00;99001.03;5039288;28;20500;-73
2022/02/14 01:16:49;;;;;;;2.90;1.00;;;;;;;5.85;100.00;98993.38;5068993;28;20036;-73
2022/02/14 01:19:15;;;;;;;2.97;1.30;;;;;;;5.77;100.00;99005.91;5063960;28;20032;-73
2022/02/14 01:21:41;;;;;;;2.63;1.23;;;;;;;5.72;100.00;99008.75;5078151;28;20471;-73
2022/02/14 01:24:07;;;;;;;5.22;1.10;;;;;;;5.70;100.00;99014.53;5053362;28;20036;-72
2022/02/14 01:26:32;;;;;;;5.60;1.20;;;;;;;5.68;100.00;99019.53;5080239;28;20087;-73
2022/02/14 01:28:58;;;;;;;5.00;1.73;;;;;;;5.63;100.00;99016.03;5070980;28;20038;-72
2022/02/14 01:31:23;;;;;;;4.80;1.25;;;;;;;5.62;100.00;99017.16;5077816;28;20097;-72
2022/02/14 01:33:49;;;;;;;4.20;1.15;;;;;;;5.62;100.00;99025.41;5072076;28;20085;-73
2022/02/14 01:36:14;;;;;;;5.40;1.35;;;;;;;5.58;100.00;99026.00;5059728;28;20024;-73
2022/02/14 01:38:40;;;;;;;5.00;1.20;;;;;;;5.56;100.00;99013.66;5093660;28;20034;-72
2022/02/14 01:41:05;;;;;;;3.83;1.30;;;;;;;5.54;100.00;99013.13;5053887;28;20032;-73
2022/02/14 01:43:31;;;;;;;7.95;1.83;;;;;;;5.50;100.00;99012.09;5097232;28;20036;-72
2022/02/14 01:45:56;;;;;;;4.40;1.02;;;;;;;5.49;100.00;99022.28;5050137;28;20028;-73
2022/02/14 01:48:22;;;;;;;3.90;0.95;;;;;;;5.47;100.00;99030.03;5047695;28;20090;-72
2022/02/14 01:50:47;;;;;;;4.57;1.55;;;;;;;5.44;100.00;99030.63;5075644;28;20043;-72
2022/02/14 01:53:14;;;;;;;5.05;1.30;;;;;;;5.42;100.00;99026.53;5075735;28;20845;-72
2022/02/14 01:55:41;;;;;;;4.18;1.60;;;;;;;5.41;100.00;99035.91;5061768;28;20055;-73
2022/02/14 01:58:06;;;;;;;4.55;1.33;;;;;;;5.36;100.00;99045.03;5043423;28;20032;-73
2022/02/14 02:00:32;;;;;;;10.90;1.60;;;;;;;5.36;100.00;99053.31;5069073;28;20040;-73
2022/02/14 02:02:57;;;;;;;9.10;1.58;;;;;;;5.33;100.00;99053.91;5054275;28;20524;-72
2022/02/14 02:05:23;;;;;;;5.88;1.33;;;;;;;5.27;100.00;99058.66;5063649;28;20169;-72
2022/02/14 02:07:51;;;;;;;6.68;1.30;;;;;;;5.26;100.00;99064.44;5069454;28;20052;-73
2022/02/14 02:10:16;;;;;;;6.50;1.08;;;;;;;5.23;100.00;99065.03;5086952;28;20035;-72
2022/02/14 02:12:52;;;;;;;5.10;1.00;;;;;;;5.20;100.00;99065.63;5065865;28;20058;-72
2022/02/14 02:15:17;;;;;;;3.83;1.08;;;;;;;5.17;100.00;99072.53;5061812;28;20428;-73
2022/02/14 02:17:43;;;;;;;7.40;1.27;;;;;;;5.14;100.00;99076.69;5067980;28;20028;-72
2022/02/14 02:20:10;;;;;;;4.30;1.13;;;;;;;5.11;100.00;99077.28;5072844;28;20516;-73
2022/02/14 02:22:35;;;;;;;7.60;1.50;;;;;;;5.10;100.00;99083.91;5063153;28;20488;-72
2022/02/14 02:25:01;;;;;;;6.30;1.30;;;;;;;5.08;100.00;99077.84;5095569;28;20126;-73
2022/02/14 02:27:27;;;;;;;6.60;1.50;;;;;;;5.07;100.00;99078.13;5059924;28;20035;-72
2022/02/14 02:29:53;;;;;;;5.15;1.23;;;;;;;5.04;100.00;99075.97;5096957;28;20028;-72
2022/02/14 02:32:19;;;;;;;4.13;1.60;;;;;;;5.00;100.00;99074.94;5090231;28;20028;-72
2022/02/14 02:34:45;;;;;;;8.32;1.60;;;;;;;4.97;100.00;99076.34;5095944;28;20035;-72
2022/02/14 02:37:13;;;;;;;4.72;1.40;;;;;;;4.92;100.00;99077.19;5062210;27;20034;-72
2022/02/14 02:39:39;;;;;;;5.60;1.95;;;;;;;4.91;100.00;99083.81;5127139;27;20119;-72
2022/02/14 02:42:05;;;;;;;9.27;1.35;;;;;;;4.87;100.00;99082.75;5074745;28;20034;-72
2022/02/14 02:44:32;;;;;;;8.07;1.60;;;;;;;4.86;100.00;99088.56;5096680;28;20030;-72
2022/02/14 02:47:01;;;;;;;9.07;1.60;;;;;;;4.83;100.00;99078.97;5094315;28;20027;-72
2022/02/14 02:49:27;;;;;;;3.05;1.20;;;;;;;4.81;100.00;99080.34;5093366;28;20059;-72
2022/02/14 02:51:53;;;;;;;8.23;1.65;;;;;;;4.77;100.00;99087.56;5114325;27;20027;-72
2022/02/14 02:54:19;;;;;;;5.93;1.60;;;;;;;4.75;100.00;99085.09;5084007;27;20455;-72
2022/02/14 02:56:45;;;;;;;7.93;1.20;;;;;;;4.74;100.00;99086.22;5096380;28;20031;-72
2022/02/14 02:59:11;;;;;;;7.60;1.40;;;;;;;4.72;100.00;99090.34;5108250;27;20027;-72
2022/02/14 03:01:37;;;;;;;9.30;1.48;;;;;;;4.68;100.00;99090.94;5082199;27;20043;-73
2022/02/14 03:04:03;;;;;;;4.68;1.58;;;;;;;4.64;100.00;99092.63;5084401;28;20556;-72
2022/02/14 03:06:28;;;;;;;7.40;1.45;;;;;;;4.61;100.00;99098.69;5083945;28;20051;-73
2022/02/14 03:08:54;;;;;;;5.45;1.52;;;;;;;4.61;100.00;99092.38;5060322;28;20426;-73
2022/02/14 03:11:20;;;;;;;10.63;1.98;;;;;;;4.58;100.00;99091.03;5078009;28;20024;-72
2022/02/14 03:13:45;;;;;;;7.30;1.70;;;;;;;4.58;100.00;99095.72;5069863;28;21505;-73
2022/02/14 03:16:12;;;;;;;9.73;1.80;;;;;;;4.56;100.00;99095.19;5087135;28;20049;-73
2022/02/14 03:18:38;;;;;;;9.48;1.58;;;;;;;4.54;100.00;99102.88;5077583;28;20093;-73
2022/02/14 03:21:04;;;;;;;8.32;1.80;;;;;;;4.50;100.00;99099.91;5084756;28;20035;-73
2022/02/14 03:23:29;;;;;;;8.65;1.80;;;;;;;4.45;100.00;99106.25;5085584;28;20470;-72
2022/02/14 03:25:55;;;;;;;7.95;1.52;;;;;;;4.44;100.00;99103.81;5081515;28;20085;-72
2022/02/14 03:28:20;;;;;;;7.78;1.88;;;;;;;4.39;100.00;99101.09;5077255;27;20038;-72
2022/02/14 03:30:46;;;;;;;14.70;2.20;;;;;;;4.37;100.00;99103.31;5084304;28;20035;-72
2022/02/14 03:33:11;;;;;;;10.30;1.75;;;;;;;4.33;100.00;99110.50;5092831;28;20036;-72
2022/02/14 03:35:36;;;;;;;8.65;1.92;;;;;;;4.30;100.00;99113.81;5087303;28;20089;-73
2022/02/14 03:38:06;;;;;;;13.25;1.90;;;;;;;4.29;100.00;99112.16;5089939;28;20399;-73
2022/02/14 03:40:32;;;;;;;4.90;1.60;;;;;;;4.22;100.00;99110.56;5088553;27;20033;-73
2022/02/14 03:42:57;;;;;;;8.48;2.08;;;;;;;4.21;100.00;99103.44;5088468;28;20399;-73
2022/02/14 03:45:23;;;;;;;8.35;1.92;;;;;;;4.18;100.00;99105.91;5061135;27;20077;-72
2022/02/14 03:47:48;;;;;;;5.88;1.42;;;;;;;4.16;100.00;99106.22;5092907;28;20083;-72
2022/02/14 03:50:14;;;;;;;8.07;1.75;;;;;;;4.14;100.00;99102.94;5091665;28;20111;-72
2022/02/14 03:52:40;;;;;;;13.32;1.90;;;;;;;4.12;100.00;99105.13;5074935;28;20047;-72
2022/02/14 03:55:05;;;;;;;7.63;1.88;;;;;;;4.08;100.00;99111.50;5069526;28;20040;-72
2022/02/14 03:57:31;;;;;;;9.77;2.13;;;;;;;4.06;100.00;99111.78;5077258;28;20115;-72
2022/02/14 03:59:56;;;;;;;7.25;1.63;;;;;;;4.02;100.00;99107.97;5090698;28;20108;-72
2022/02/14 04:02:22;;;;;;;8.05;1.60;;;;;;;4.00;100.00;99118.41;5098924;27;20031;-73
2022/02/14 04:04:47;;;;;;;9.40;2.30;;;;;;;3.95;100.00;99122.00;5103718;27;20050;-72
2022/02/14 04:07:13;;;;;;;7.03;1.63;;;;;;;3.96;100.00;99128.34;5107809;27;20027;-72
2022/02/14 04:09:39;;;;;;;9.73;2.50;;;;;;;3.92;100.00;99125.31;5115933;27;20060;-72
2022/02/14 04:12:04;;;;;;;11.05;2.60;;;;;;;3.89;100.00;99130.56;5082005;27;20424;-72
2022/02/14 04:14:30;;;;;;;11.25;2.65;;;;;;;3.86;100.00;99128.41;5079734;27;20027;-72
2022/02/14 04:16:55;;;;;;;10.05;2.50;;;;;;;3.83;100.00;99135.28;5090674;28;20046;-72
2022/02/14 04:19:21;;;;;;;7.55;2.35;;;;;;;3.81;100.00;99129.25;5091578;28;20031;-72
2022/02/14 04:21:46;;;;;;;11.93;3.10;;;;;;;3.78;100.00;99133.38;5064384;28;20028;-72
2022/02/14 04:24:12;;;;;;;14.80;2.58;;;;;;;3.76;100.00;99137.50;5081654;27;20107;-72
2022/02/14 04:26:37;;;;;;;12.18;2.92;;;;;;;3.74;100.00;99137.78;5114552;28;20032;-72
2022/02/14 04:29:03;;;;;;;12.18;3.38;;;;;;;3.70;100.00;99142.19;5105391;28;20027;-72
2022/02/14 04:31:28;;;;;;;9.15;2.63;;;;;;;3.68;100.00;99147.16;5102617;28;20036;-72
2022/02/14 04:33:53;;;;;;;8.20;2.60;;;;;;;3.67;100.00;99144.69;5086662;27;20032;-72
2022/02/14 04:36:19;;;;;;;12.35;2.70;;;;;;;3.63;100.00;99149.94;5077702;28;20028;-72
2022/02/14 04:38:44;;;;;;;12.00;2.70;;;;;;;3.64;100.00;99154.31;5079172;28;20027;-72
2022/02/14 04:41:10;;;;;;;6.03;2.85;;;;;;;3.61;100.00;99171.34;5118474;27;20035;-72
2022/02/14 04:43:35;;;;;;;11.40;2.90;;;;;;;3.58;100.00;99167.25;5083391;28;20036;-72
2022/02/14 04:46:01;;;;;;;15.70;2.85;;;;;;;3.58;100.00;99174.66;5091096;28;20028;-72
2022/02/14 04:48:28;;;;;;;12.02;2.25;;;;;;;3.54;100.00;99170.84;5086829;28;20042;-72
2022/02/14 04:50:54;;;;;;;12.20;2.67;;;;;;;3.53;100.00;99177.41;5076616;28;20039;-72
2022/02/14 04:53:20;;;;;;;15.65;2.63;;;;;;;3.52;100.00;99184.84;5118809;27;20020;-72
2022/02/14 04:55:45;;;;;;;9.02;2.75;;;;;;;3.50;100.00;99183.47;5096951;28;20070;-72
2022/02/14 04:58:10;;;;;;;12.70;3.03;;;;;;;3.47;100.00;99186.78;5076592;27;20031;-72
2022/02/14 05:00:36;;;;;;;8.40;2.55;;;;;;;3.46;100.00;99179.66;5079934;27;20089;-72
2022/02/14 05:03:01;;;;;;;12.98;2.92;;;;;;;3.44;100.00;99188.16;5086575;27;20031;-72
2022/02/14 05:05:27;;;;;;;12.30;2.10;;;;;;;3.43;100.00;99186.53;5091608;27;20035;-72
2022/02/14 05:07:52;;;;;;;11.63;2.85;;;;;;;3.41;100.00;99185.97;5065431;28;20476;-72
2022/02/14 05:10:18;;;;;;;9.80;2.30;;;;;;;3.38;100.00;99182.97;5088020;27;20040;-72
2022/02/14 05:12:44;;;;;;;11.23;2.42;;;;;;;3.36;100.00;99184.06;5087005;28;20061;-73
2022/02/14 05:15:10;;;;;;;7.13;2.40;;;;;;;3.32;100.00;99188.47;5088323;28;20024;-72
2022/02/14 05:17:35;;;;;;;12.98;2.95;;;;;;;3.30;100.00;99184.34;5097143;27;20034;-72
2022/02/14 05:20:04;;;;;;;8.95;2.55;;;;;;;3.29;100.00;99194.53;5101819;27;20027;-72
2022/02/14 05:22:30;;;;;;;12.10;2.55;;;;;;;3.28;100.00;99194.78;5059963;28;20434;-72
2022/02/14 05:24:55;;;;;;;13.63;2.88;;;;;;;3.22;100.00;99204.94;5070294;28;20031;-72
2022/02/14 05:27:21;;;;;;;11.57;2.70;;;;;;;3.23;100.00;99197.53;5092805;27;20104;-72
2022/02/14 05:29:47;;;;;;;17.00;2.90;;;;;;;3.19;100.00;99204.69;5077444;28;20042;-72
2022/02/14 05:32:13;;;;;;;14.27;2.28;;;;;;;3.18;100.00;99198.38;5072027;28;20040;-73
2022/02/14 05:34:38;;;;;;;14.48;3.53;;;;;;;3.15;100.00;99204.44;5074081;28;20036;-72
2022/02/14 05:37:04;;;;;;;11.57;3.17;;;;;;;3.13;100.00;99212.09;5065859;28;20040;-72
2022/02/14 05:39:29;;;;;;;11.43;2.58;;;;;;;3.09;100.00;99219.22;5093956;28;20039;-72
2022/02/14 05:41:55;;;;;;;9.18;2.75;;;;;;;3.06;100.00;99225.28;5065718;28;20040;-72
2022/02/14 05:44:20;;;;;;;11.98;2.60;;;;;;;3.05;100.00;99224.44;5077964;28;20047;-72
2022/02/14 05:46:46;;;;;;;10.77;2.63;;;;;;;3.05;100.00;99229.13;5059477;28;20037;-73
2022/02/14 05:49:11;;;;;;;13.65;2.65;;;;;;;3.02;100.00;99230.50;5054069;28;20032;-72
2022/02/14 05:51:38;;;;;;;15.32;3.10;;;;;;;3.01;100.00;99230.75;5060393;28;20040;-73
2022/02/14 05:54:04;;;;;;;15.85;3.17;;;;;;;3.00;100.00;99231.88;5053399;28;20032;-72
2022/02/14 05:56:30;;;;;;;15.45;3.90;;;;;;;2.96;100.00;99237.09;5053218;28;20033;-72
2022/02/14 05:58:55;;;;;;;13.07;2.85;;;;;;;2.95;100.00;99234.59;5071199;28;20096;-73
2022/02/14 06:01:21;;;;;;;11.52;2.65;;;;;;;2.92;100.00;99241.47;5072502;28;20044;-72
2022/02/14 06:03:46;;;;;;;10.32;2.63;;;;;;;2.90;100.00;99246.41;5055145;28;20035;-72
2022/02/14 06:06:12;;;;;;;8.73;2.90;;;;;;;2.90;100.00;99239.00;5081286;28;20020;-72
2022/02/14 06:08:37;;;;;;;13.98;3.03;;;;;;;2.87;100.00;99239.56;5087456;28;20036;-72
2022/02/14 06:11:02;;;;;;;14.57;2.92;;;;;;;2.86;100.00;99245.31;5076374;28;20028;-72
2022/02/14 06:13:28;;;;;;;9.65;2.50;;;;;;;2.85;100.00;99249.97;5083038;28;20039;-72
2022/02/14 06:15:54;;;;;;;13.02;2.88;;;;;;;2.86;100.00;99246.13;5081015;28;20468;-72
2022/02/14 06:18:19;;;;;;;10.60;2.88;;;;;;;2.83;100.00;99241.19;5061927;28;20101;-72
2022/02/14 06:20:45;;;;;;;9.55;2.63;;;;;;;2.81;100.00;99240.63;5075557;28;20040;-72
2022/02/14 06:23:10;;;;;;;13.32;3.25;;;;;;;2.78;100.00;99246.66;5046833;28;20028;-72
2022/02/14 06:25:37;;;;;;;15.27;3.40;;;;;;;2.77;100.00;99239.56;5058628;28;20077;-72
2022/02/14 06:28:03;;;;;;;14.95;2.80;;;;;;;2.76;100.00;99235.16;5065197;28;20043;-73
2022/02/14 06:30:28;;;;;;;12.23;3.22;;;;;;;2.73;100.00;99249.44;5068201;28;20472;-72
2022/02/14 06:32:54;;;;;;;12.40;2.80;;;;;;;2.72;100.00;99247.75;5074422;28;20446;-73
2022/02/14 06:35:21;;;;;;;14.27;2.95;;;;;;;2.68;100.00;99244.75;5080087;27;20028;-72
2022/02/14 06:37:46;;;;;;;14.38;2.75;;;;;;;2.68;100.00;99247.50;5068211;28;20028;-72
2022/02/14 06:40:12;;;;;;;9.30;2.75;;;;;;;2.63;100.00;99244.75;5080977;28;20031;-72
2022/02/14 06:42:38;;;;;;;16.50;3.05;;;;;;;2.61;100.00;99251.59;5069213;28;20043;-72
2022/02/14 06:45:04;;;;;;;11.88;2.90;;;;;;;2.62;100.00;99250.53;5068240;28;20030;-72
2022/02/14 06:47:29;;;;;;;12.65;2.47;;;;;;;2.62;100.00;99250.53;5082248;28;20028;-72
2022/02/14 06:49:55;;;;;;;13.63;2.58;;;;;;;2.59;100.00;99251.88;5059542;28;20048;-72
2022/02/14 06:52:20;;;;;;;8.38;2.38;;;;;;;2.59;100.00;99256.53;5078568;28;20031;-72
2022/02/14 06:54:46;;;;;;;12.82;2.00;;;;;;;2.59;100.00;99265.59;5076944;28;20458;-72
2022/02/14 06:57:11;;;;;;;11.05;2.53;;;;;;;2.57;100.00;99265.03;5070929;28;20032;-72
2022/02/14 06:59:37;;;;;;;11.30;2.50;;;;;;;2.56;100.00;99266.09;5071131;28;20039;-72
2022/02/14 07:02:03;;;;;;;10.10;2.10;;;;;;;2.55;100.00;99277.34;5061316;28;20039;-72
2022/02/14 07:04:28;;;;;;;10.73;2.05;;;;;;;2.54;100.00;99273.78;5064632;28;20395;-72
2022/02/14 07:06:54;;;;;;;13.95;3.05;;;;;;;2.52;100.00;99281.47;5077546;28;20039;-72
2022/02/14 07:09:19;;;;;;;10.55;2.58;;;;;;;2.53;100.00;99282.28;5057106;28;20032;-72
2022/02/14 07:11:45;;;;;;;12.93;2.13;;;;;;;2.52;100.00;99286.13;5074748;28;20020;-72
2022/02/14 07:14:11;;;;;;;13.75;2.80;;;;;;;2.53;100.00;99282.28;5079696;28;20066;-72
2022/02/14 07:16:37;;;;;;;14.43;2.30;;;;;;;2.50;100.00;99289.13;5059562;28;20032;-72
2022/02/14 07:19:02;;;;;;;12.60;2.20;;;;;;;2.50;100.00;99288.31;5088395;28;20066;-72
2022/02/14 07:21:28;;;;;;;13.05;2.15;;;;;;;2.49;100.00;99286.66;5064525;28;20031;-72
2022/02/14 07:23:54;;;;;;;9.70;2.13;;;;;;;2.47;100.00;99286.94;5077547;28;20028;-72
2022/02/14 07:26:20;;;;;;;8.70;1.80;;;;;;;2.45;100.00;99291.84;5058386;28;20039;-72
2022/02/14 07:28:45;;;;;;;11.30;2.00;;;;;;;2.46;100.00;99283.38;5045629;28;20432;-72
2022/02/14 07:31:11;;;;;;;14.05;2.42;;;;;;;2.44;100.00;99288.28;5071656;28;20125;-72
2022/02/14 07:33:36;;;;;;;10.93;2.00;;;;;;;2.42;100.00;99295.97;5054869;28;20039;-72
2022/02/14 07:36:03;;;;;;;8.43;2.00;;;;;;;2.42;100.00;99298.72;5055005;28;20035;-73
2022/02/14 07:38:28;;;;;;;12.23;1.90;;;;;;;2.42;100.00;99292.38;5059250;28;20036;-73
2022/02/14 07:40:53;;;;;;;12.85;2.47;;;;;;;2.42;100.00;99289.66;5062387;28;20093;-73
2022/02/14 07:43:19;;;;;;;15.13;2.58;;;;;;;2.46;100.00;99297.06;5069910;28;20025;-74
2022/02/14 07:45:45;;;;;;;9.95;1.90;;;;;;;2.49;100.00;99300.38;5052992;28;20032;-73
2022/02/14 07:48:11;;;;;;;8.20;1.90;;;;;;;2.49;100.00;99303.94;5049472;28;20036;-73
2022/02/14 07:50:36;;;;;;;8.90;1.95;;;;;;;2.55;100.00;99308.31;5064119;28;20361;-74
2022/02/14 07:53:02;;;;;;;10.45;2.30;;;;;;;2.57;100.00;99306.16;5070322;28;20071;-74
2022/02/14 07:55:27;;;;;;;10.25;2.05;;;;;;;2.63;100.00;99299.56;5051643;28;20040;-75
2022/02/14 07:57:53;;;;;;;15.45;2.50;;;;;;;2.68;100.00;99301.50;5043175;28;20435;-74
2022/02/14 08:00:18;;;;;;;8.98;1.52;;;;;;;2.72;100.00;99302.59;5049183;28;20028;-74
2022/02/14 08:02:44;;;;;;;13.30;1.95;;;;;;;2.79;100.00;99297.69;5083982;28;20036;-73
2022/02/14 08:05:09;;;;;;;8.57;2.03;;;;;;;2.85;100.00;99295.78;5062610;28;20020;-74
2022/02/14 08:07:35;;;;;;;6.03;1.67;;;;;;;2.92;100.00;99296.31;5054579;28;20032;-74
2022/02/14 08:10:00;;;;;;;10.00;1.95;;;;;;;3.00;100.00;99301.25;5078849;28;20468;-74
2022/02/14 08:12:26;;;;;;;13.32;2.10;;;;;;;3.05;100.00;99295.78;5061452;28;20028;-74
2022/02/14 08:14:52;;;;;;;16.15;2.97;;;;;;;3.14;100.00;99305.09;5069626;28;20020;-74
2022/02/14 08:17:17;;;;;;;10.45;1.80;;;;;;;3.26;100.00;99304.00;5071293;28;20127;-75
2022/02/14 08:19:43;;;;;;;10.07;2.20;;;;;;;3.35;100.00;99297.69;5046153;28;20021;-73
2022/02/14 08:22:08;;;;;;;9.50;2.08;;;;;;;3.45;100.00;99301.50;5048770;28;20089;-74
2022/02/14 08:24:34;;;;;;;7.57;1.75;;;;;;;3.54;100.00;99297.94;5052374;28;20028;-74
2022/02/14 08:26:59;;;;;;;10.82;1.58;;;;;;;3.68;100.00;99302.88;5050483;28;20028;-74
2022/02/14 08:29:26;;;;;;;8.48;1.80;;;;;;;3.78;100.00;99303.63;5078734;28;20035;-74
2022/02/14 08:31:58;;;;;;;7.78;1.70;;;;;;;3.91;100.00;99306.91;5078760;28;20055;-74
2022/02/14 08:34:24;;;;;;;9.95;1.80;;;;;;;4.01;100.00;99304.97;5075983;28;20087;-74
2022/02/14 08:36:49;;;;;;;10.52;2.00;;;;;;;4.13;100.00;99292.81;5060781;28;20103;-74
2022/02/14 08:39:15;;;;;;;13.85;1.80;;;;;;;4.21;100.00;99295.81;5069169;28;20021;-75
2022/02/14 08:41:41;;;;;;;9.88;2.08;;;;;;;4.33;100.00;99298.22;5061430;28;20055;-74
2022/02/14 08:44:07;;;;;;;11.38;2.58;;;;;;;4.43;100.00;99289.94;5069757;28;20020;-74
2022/02/14 08:46:33;;;;;;;12.88;1.80;;;;;;;4.55;100.00;99294.25;5094028;28;20093;-74
2022/02/14 08:48:59;;;;;;;15.63;2.15;;;;;;;4.64;100.00;99296.13;5061494;28;20028;-74
2022/02/14 08:51:25;;;;;;;10.45;1.67;;;;;;;4.76;100.00;99295.75;5079757;28;20043;-74
2022/02/14 08:53:50;;;;;;;13.35;2.00;;;;;;;4.87;100.00;99294.59;5055220;28;20029;-74
2022/02/14 08:56:16;;;;;;;13.27;2.40;;;;;;;4.99;100.00;99302.50;5069569;28;20032;-75
2022/02/14 08:58:42;;;;;;;10.60;1.90;;;;;;;5.11;100.00;99293.88;5068945;28;20040;-75
2022/02/14 09:01:07;;;;;;;12.70;2.35;;;;;;;5.24;100.00;99292.41;5085529;28;20035;-74
2022/02/14 09:03:33;;;;;;;9.82;1.60;;;;;;;5.36;100.00;99290.88;5054514;28;20024;-74
2022/02/14 09:05:58;;;;;;;12.27;1.95;;;;;;;5.52;100.00;99290.75;5110467;28;20035;-75
2022/02/14 09:08:25;;;;;;;16.25;2.20;;;;;;;5.65;100.00;99294.75;5089137;28;20066;-75
2022/02/14 09:10:51;;;;;;;15.48;2.75;;;;;;;5.77;100.00;99292.44;5088619;28;20063;-75
2022/02/14 09:13:17;;;;;;;10.85;2.17;;;;;;;5.90;100.00;99288.97;5090736;28;20030;-75
2022/02/14 09:15:42;;;;;;;13.05;2.28;;;;;;;6.04;100.00;99286.34;5091452;28;20032;-75
2022/02/14 09:18:08;;;;;;;17.67;2.20;;;;;;;6.19;100.00;99288.13;5112556;28;20032;-75
2022/02/14 09:20:33;;;;;;;13.52;2.17;;;;;;;6.33;100.00;99294.56;5075515;28;20032;-75
2022/02/14 09:23:00;;;;;;;12.70;2.42;;;;;;;6.48;100.00;99294.34;5098923;28;20054;-74
2022/02/14 09:25:25;;;;;;;12.70;1.85;;;;;;;6.66;100.00;99287.22;5056945;28;20035;-75
2022/02/14 09:27:51;;;;;;;10.45;1.90;;;;;;;6.78;100.00;99289.50;5069699;28;20065;-75
2022/02/14 09:30:17;;;;;;;14.82;2.33;;;;;;;6.91;100.00;99287.94;5082120;28;20490;-75
2022/02/14 09:32:42;;;;;;;16.35;2.35;;;;;;;7.04;100.00;99284.41;5100840;28;20032;-75
2022/02/14 09:35:08;;;;;;;13.60;2.10;;;;;;;7.19;100.00;99282.50;5078332;28;20032;-75
2022/02/14 09:37:34;;;;;;;12.00;2.10;;;;;;;7.31;100.00;99285.63;5069383;28;20162;-75
2022/02/14 09:39:59;;;;;;;18.33;2.75;;;;;;;7.39;100.00;99296.81;5051312;28;20036;-75
2022/02/14 09:42:25;;;;;;;15.02;2.28;;;;;;;7.49;100.00;99297.75;5082980;27;20062;-75
2022/02/14 09:44:50;;;;;;;12.55;2.03;;;;;;;7.57;100.00;99305.34;5110079;28;20030;-75
2022/02/14 09:47:16;;;;;;;14.68;2.70;;;;;;;7.61;100.00;99300.88;5104481;28;20042;-75
2022/02/14 09:49:42;;;;;;;13.90;2.55;;;;;;;7.68;100.00;99301.28;5105126;28;20024;-75
2022/02/14 09:52:08;;;;;;;14.00;1.95;;;;;;;7.70;100.00;99301.78;5067736;28;20131;-75
2022/02/14 09:54:33;;;;;;;9.63;2.25;;;;;;;7.74;100.00;99305.56;5092150;28;20032;-75
2022/02/14 09:56:58;;;;;;;13.60;2.00;;;;;;;7.75;100.00;99301.72;5109025;28;20091;-75
2022/02/14 09:59:24;;;;;;;12.65;2.45;;;;;;;7.77;100.00;99307.75;5070800;28;20048;-75
2022/02/14 10:01:50;;;;;;;14.60;3.00;;;;;;;7.77;100.00;99309.69;5115326;28;20379;-75
2022/02/14 10:04:15;;;;;;;12.25;2.17;;;;;;;7.78;100.00;99309.38;5115439;27;20028;-75
2022/02/14 10:06:43;;;;;;;10.05;2.28;;;;;;;7.80;100.00;99312.69;5111214;28;20463;-75
2022/02/14 10:09:16;;;;;;;10.57;2.10;;;;;;;7.83;100.00;99312.06;5089954;28;20032;-75
2022/02/14 10:12:09;;;;;;;10.70;2.20;;;;;;;7.86;100.00;99315.34;5072522;28;20028;-75
2022/02/14 10:14:35;;;;;;;13.68;2.83;;;;;;;7.91;100.00;99309.69;5092625;28;20607;-74
2022/02/14 10:17:22;;;;;;;14.30;2.90;;;;;;;7.97;100.00;99314.03;5072529;28;20056;-75
2022/02/14 10:20:02;;;;;;;15.27;3.17;;;;;;;8.05;100.00;99316.06;5057320;28;20395;-75
2022/02/14 10:22:28;;;;;;;15.15;2.17;;;;;;;8.09;100.00;99314.34;5103834;28;20105;-75
2022/02/14 10:24:54;;;;;;;13.25;2.33;;;;;;;8.17;100.00;99313.63;5088971;28;20023;-75
2022/02/14 10:27:33;;;;;;;12.18;3.00;;;;;;;8.23;100.00;99317.09;5075823;28;20387;-75
2022/02/14 10:30:09;;;;;;;12.02;2.25;;;;;;;8.27;100.00;99313.41;5070780;28;20028;-75
2022/02/14 10:32:34;;;;;;;14.07;2.45;;;;;;;8.32;100.00;99317.19;5098460;28;20035;-75
2022/02/14 10:35:02;;;;;;;13.32;2.75;;;;;;;8.38;100.00;99322.31;5076439;28;20035;-75
2022/02/14 10:37:42;;;;;;;9.32;2.10;;;;;;;8.43;100.00;99313.13;5074680;27;20054;-75
2022/02/14 10:40:08;;;;;;;8.95;2.15;;;;;;;8.49;100.00;99314.66;5048416;28;20040;-75
2022/02/14 10:42:35;;;;;;;14.75;2.20;;;;;;;8.55;100.00;99316.16;5062912;28;20032;-75
2022/02/14 10:45:10;;;;;;;10.75;2.58;;;;;;;8.59;100.00;99319.16;5067852;28;20377;-75
2022/02/14 10:47:39;;;;;;;12.32;2.65;;;;;;;8.67;100.00;99323.97;5060600;28;20055;-75
2022/02/14 10:50:10;;;;;;;9.82;2.67;;;;;;;8.72;100.00;99323.84;5090299;27;20058;-75
2022/02/14 10:52:38;;;;;;;18.20;3.47;;;;;;;8.81;100.00;99330.28;5088527;28;20392;-76
2022/02/14 10:55:11;;;;;;;11.40;2.63;;;;;;;8.89;100.00;99334.28;5112774;28;20131;-75
2022/02/14 10:57:38;;;;;;;11.93;2.78;;;;;;;8.96;100.00;99334.66;5089692;28;20404;-76
2022/02/14 11:00:05;;;;;;;12.48;2.88;;;;;;;9.05;100.00;99331.94;5077375;28;20032;-77
2022/02/14 11:02:30;;;;;;;17.45;3.47;;;;;;;9.13;100.00;99337.56;5107840;28;20035;-75
2022/02/14 11:04:56;;;;;;;15.45;3.00;;;;;;;9.21;100.00;99341.53;5081019;28;20358;-75
2022/02/14 11:07:21;;;;;;;14.07;3.15;;;;;;;9.29;100.00;99340.78;5061621;28;20028;-75
2022/02/14 11:09:51;;;;;;;10.48;3.28;;;;;;;9.38;100.00;99347.22;5086089;28;20036;-75
2022/02/14 11:12:20;;;;;;;14.20;2.30;;;;;;;9.49;100.00;99347.78;5106985;28;20039;-75
2022/02/14 11:14:55;;;;;;;10.80;2.60;;;;;;;9.58;100.00;99343.16;5108836;28;20040;-75
2022/02/14 11:17:25;;;;;;;11.75;2.33;;;;;;;9.67;100.00;99342.34;5075899;28;20415;-75
2022/02/14 11:19:54;;;;;;;;;;;;;;;9.74;100.00;99346.31;5071467;28;20089;-75
2022/02/14 11:22:20;;;;;;;;;;;;;;;9.83;100.00;99354.69;5111685;28;19919;-75
2022/02/14 11:24:48;;;;;;;9.73;2.00;;;;;;;9.87;100.00;99352.94;5088974;28;19908;-75